Time;durP1;ratioP1;P1;durP2;ratioP2;P2;SDS_P1;SDS_P2;PMS_P1;PMS_P2;Temp;Humidity;BMP_temperature;BMP_pressure;BME280_temperature;BME280_humidity;BME280_pressure;Samples;Min_cycle;Max_cycle;Signal;HPM_P1;HPM_P2
2024/03/08 00:01:53;;;;;;;;;;;;;;;22.25;25.75;98144.00;5019835;28;1080;-80
2024/03/08 00:04:18;;;;;;;;;;;;;;;21.83;26.39;98143.84;4976547;28;1211;-80
2024/03/08 00:06:45;;;;;;;;;;;;;;;21.84;26.34;98136.94;4977041;28;934;-80
2024/03/08 00:09:15;;;;;;;;;;;;;;;21.88;26.28;98130.41;4976136;28;876;-80
2024/03/08 00:11:41;;;;;;;;;;;;;;;21.91;25.98;98130.28;4945132;29;935;-80
2024/03/08 00:14:07;;;;;;;;;;;;;;;21.83;26.09;98118.34;4956795;29;1106;-80
2024/03/08 00:16:33;;;;;;;;;;;;;;;21.95;25.91;98113.19;4941702;29;1948;-80
2024/03/08 00:18:59;;;;;;;;;;;;;;;21.82;25.99;98115.97;4908716;29;981;-80
2024/03/08 00:21:24;;;;;;;;;;;;;;;21.94;26.12;98103.13;4941453;29;893;-80
2024/03/08 00:23:50;;;;;;;;;;;;;;;21.78;26.15;98093.41;4956269;28;919;-80
2024/03/08 00:26:15;;;;;;;;;;;;;;;21.89;26.18;98098.00;4975991;28;1256;-80
2024/03/08 00:28:41;;;;;;;;;;;;;;;21.74;26.54;98104.00;4962751;28;933;-80
2024/03/08 00:31:06;;;;;;;;;;;;;;;21.71;26.23;98096.44;4979629;28;868;-80
2024/03/08 00:33:32;;;;;;;;;;;;;;;21.77;26.13;98086.16;4978476;28;890;-80
2024/03/08 00:35:58;;;;;;;;;;;;;;;21.53;26.19;98081.91;4980093;28;1982;-80
2024/03/08 00:38:23;;;;;;;;;;;;;;;21.85;26.35;98076.19;4978608;28;1010;-80
2024/03/08 00:40:49;;;;;;;;;;;;;;;21.90;26.13;98082.56;4979680;28;996;-80
2024/03/08 00:43:15;;;;;;;;;;;;;;;21.85;26.36;98081.88;4978694;28;901;-80
2024/03/08 00:45:42;;;;;;;;;;;;;;;21.98;25.79;98084.78;5008730;28;960;-80
2024/03/08 00:48:08;;;;;;;;;;;;;;;21.89;26.31;98078.94;4985899;28;1227;-80
2024/03/08 00:50:33;;;;;;;;;;;;;;;21.72;26.40;98078.19;5001788;28;956;-80
2024/03/08 00:52:59;;;;;;;;;;;;;;;21.62;26.34;98084.91;5001730;28;1214;-80
2024/03/08 00:55:25;;;;;;;;;;;;;;;21.42;26.76;98087.03;5001847;28;1910;-80
2024/03/08 00:57:51;;;;;;;;;;;;;;;21.92;26.30;98085.78;4987803;28;1119;-80
2024/03/08 01:00:17;;;;;;;;;;;;;;;21.79;26.35;98083.66;5038650;28;807;-80
2024/03/08 01:02:42;;;;;;;;;;;;;;;21.61;26.70;98077.66;5022922;28;1141;-80
2024/03/08 01:05:08;;;;;;;;;;;;;;;21.83;26.35;98073.03;5033750;28;952;-80
2024/03/08 01:07:35;;;;;;;;;;;;;;;21.78;26.42;98073.56;5001429;28;1319;-80
2024/03/08 01:10:01;;;;;;;;;;;;;;;21.72;26.12;98077.41;4962468;28;1167;-80
2024/03/08 01:12:27;;;;;;;;;;;;;;;21.67;26.10;98072.25;4979194;28;1187;-80
2024/03/08 01:14:52;;;;;;;;;;;;;;;21.62;26.33;98073.59;4958921;29;1136;-80
2024/03/08 01:17:18;;;;;;;;;;;;;;;21.97;26.05;98074.69;4959283;29;1906;-80
2024/03/08 01:19:44;;;;;;;;;;;;;;;21.71;26.41;98070.13;4959012;29;964;-80
2024/03/08 01:22:10;;;;;;;;;;;;;;;21.82;26.24;98070.66;4943796;29;1034;-80
2024/03/08 01:24:36;;;;;;;;;;;;;;;21.84;26.08;98074.63;4958909;29;917;-80
2024/03/08 01:27:02;;;;;;;;;;;;;;;21.75;26.06;98074.44;4959280;29;1616;-79
2024/03/08 01:29:29;;;;;;;;;;;;;;;21.88;25.80;98073.75;4958753;28;992;-80
2024/03/08 01:31:56;;;;;;;;;;;;;;;21.75;25.71;98082.16;4958845;29;953;-80
2024/03/08 01:34:22;;;;;;;;;;;;;;;21.80;26.11;98085.25;4959207;29;1051;-80
2024/03/08 01:36:48;;;;;;;;;;;;;;;21.93;25.84;98093.03;4974939;28;1914;-80
2024/03/08 01:39:14;;;;;;;;;;;;;;;21.98;25.91;98089.66;4978200;28;896;-80
2024/03/08 01:41:40;;;;;;;;;;;;;;;22.09;25.88;98095.84;4978749;28;1235;-80
2024/03/08 01:44:07;;;;;;;;;;;;;;;21.77;26.12;98096.69;4978037;28;1278;-80
2024/03/08 01:46:32;;;;;;;;;;;;;;;21.77;25.85;98088.19;4965859;28;1048;-80
2024/03/08 01:48:58;;;;;;;;;;;;;;;21.31;26.44;98092.97;4997432;28;1392;-80
2024/03/08 01:51:23;;;;;;;;;;;;;;;21.28;26.32;98088.94;5003122;28;925;-80
2024/03/08 01:53:49;;;;;;;;;;;;;;;21.68;26.20;98094.47;5020315;28;1244;-80
2024/03/08 01:56:14;;;;;;;;;;;;;;;21.76;26.06;98101.56;5005244;28;1910;-80
2024/03/08 01:58:47;;;;;;;;;;;;;;;21.63;26.13;98097.84;5020115;28;959;-80
2024/03/08 02:01:14;;;;;;;;;;;;;;;21.82;26.11;98082.78;5021972;28;940;-80
2024/03/08 02:03:40;;;;;;;;;;;;;;;21.85;26.23;98081.88;5020213;28;962;-80
2024/03/08 02:06:08;;;;;;;;;;;;;;;21.85;25.93;98087.53;5021152;28;1006;-80
2024/03/08 02:08:34;;;;;;;;;;;;;;;21.67;26.19;98084.38;5020332;28;924;-80
2024/03/08 02:11:00;;;;;;;;;;;;;;;21.47;26.43;98083.69;5021686;28;1156;-80
2024/03/08 02:13:25;;;;;;;;;;;;;;;22.03;25.79;98092.75;5019589;28;949;-80
2024/03/08 02:15:51;;;;;;;;;;;;;;;21.97;25.96;98090.91;5020631;28;1997;-80
2024/03/08 02:18:17;;;;;;;;;;;;;;;21.87;26.06;98089.16;5016677;28;1292;-80
2024/03/08 02:20:43;;;;;;;;;;;;;;;21.78;26.23;98101.91;4984578;28;1161;-80
2024/03/08 02:23:08;;;;;;;;;;;;;;;21.84;26.09;98097.28;5000125;28;1095;-80
2024/03/08 02:25:34;;;;;;;;;;;;;;;21.78;25.94;98095.44;4968237;28;1308;-80
2024/03/08 02:27:59;;;;;;;;;;;;;;;21.75;25.95;98093.47;5000006;28;1015;-80
2024/03/08 02:30:29;;;;;;;;;;;;;;;21.14;26.95;98089.28;4961454;28;1160;-80
2024/03/08 02:32:55;;;;;;;;;;;;;;;21.63;26.54;98092.16;4962273;28;958;-80
2024/03/08 02:35:20;;;;;;;;;;;;;;;21.60;26.47;98093.03;4961596;28;1204;-80
2024/03/08 02:37:47;;;;;;;;;;;;;;;21.81;26.20;98077.53;4946091;28;1898;-80
2024/03/08 02:40:13;;;;;;;;;;;;;;;21.81;26.04;98081.19;4977776;28;914;-80
2024/03/08 02:42:39;;;;;;;;;;;;;;;21.79;26.32;98085.69;4964724;28;1064;-80
2024/03/08 02:45:05;;;;;;;;;;;;;;;21.82;26.13;98087.66;4965404;28;911;-80
2024/03/08 02:47:31;;;;;;;;;;;;;;;21.50;26.38;98089.25;4965567;28;1080;-80
2024/03/08 02:49:56;;;;;;;;;;;;;;;21.43;26.41;98089.44;4965226;28;1136;-80
2024/03/08 02:52:22;;;;;;;;;;;;;;;21.59;26.43;98086.59;4981972;28;827;-80
2024/03/08 02:54:48;;;;;;;;;;;;;;;21.93;25.96;98093.03;4969674;28;1231;-80
2024/03/08 02:57:14;;;;;;;;;;;;;;;21.94;25.95;98095.41;5004249;28;1969;-80
2024/03/08 02:59:39;;;;;;;;;;;;;;;21.81;26.13;98103.84;5004343;28;1088;-80
2024/03/08 03:02:06;;;;;;;;;;;;;;;21.88;25.79;98090.75;5037489;28;951;-80
2024/03/08 03:04:34;;;;;;;;;;;;;;;21.81;25.71;98089.69;4991871;28;935;-80
2024/03/08 03:07:00;;;;;;;;;;;;;;;21.60;26.11;98093.03;5041654;28;810;-80
2024/03/08 03:09:27;;;;;;;;;;;;;;;21.41;26.18;98093.94;5023866;28;1092;-80
2024/03/08 03:11:54;;;;;;;;;;;;;;;21.61;26.09;98088.19;5042366;28;860;-80
2024/03/08 03:14:21;;;;;;;;;;;;;;;21.72;26.20;98094.38;5040605;28;1269;-80
2024/03/08 03:16:46;;;;;;;;;;;;;;;21.98;25.65;98086.81;5025033;28;1981;-80
2024/03/08 03:19:12;;;;;;;;;;;;;;;21.84;25.87;98096.50;5019862;28;902;-80
2024/03/08 03:21:38;;;;;;;;;;;;;;;21.92;25.86;98085.78;5003285;28;932;-80
2024/03/08 03:24:04;;;;;;;;;;;;;;;21.80;26.04;98099.41;5003085;28;947;-80
2024/03/08 03:26:31;;;;;;;;;;;;;;;21.45;26.43;98103.13;5003790;28;1313;-80
2024/03/08 03:28:57;;;;;;;;;;;;;;;21.37;26.35;98102.53;5020208;28;907;-80
2024/03/08 03:31:23;;;;;;;;;;;;;;;21.77;26.06;98096.69;5020368;28;846;-80
2024/03/08 03:33:51;;;;;;;;;;;;;;;21.89;25.93;98100.81;5019198;28;903;-80
2024/03/08 03:36:17;;;;;;;;;;;;;;;21.87;25.87;98094.81;5020306;28;1979;-80
2024/03/08 03:38:43;;;;;;;;;;;;;;;21.95;25.65;98091.34;5002765;28;965;-80
2024/03/08 03:41:11;;;;;;;;;;;;;;;21.78;25.87;98099.06;5003275;28;914;-80
2024/03/08 03:43:40;;;;;;;;;;;;;;;21.81;25.51;98091.69;4986191;28;1009;-80
2024/03/08 03:46:06;;;;;;;;;;;;;;;21.63;25.99;98095.00;5004921;28;988;-80
2024/03/08 03:48:32;;;;;;;;;;;;;;;21.51;26.13;98107.03;5019109;28;1018;-80
2024/03/08 03:50:58;;;;;;;;;;;;;;;21.70;25.84;98097.63;5034025;28;1223;-81
2024/03/08 03:53:25;;;;;;;;;;;;;;;21.78;26.03;98092.59;5039444;28;830;-80
2024/03/08 03:55:51;;;;;;;;;;;;;;;21.69;26.13;98096.06;5041036;28;1890;-80
2024/03/08 03:58:22;;;;;;;;;;;;;;;21.61;26.41;98094.66;5002025;28;1186;-80
2024/03/08 04:00:48;;;;;;;;;;;;;;;21.68;26.13;98094.47;4987863;28;917;-80
2024/03/08 04:03:14;;;;;;;;;;;;;;;21.78;25.74;98101.91;4970359;28;1173;-80
2024/03/08 04:05:39;;;;;;;;;;;;;;;21.49;26.17;98103.84;5003277;28;924;-80
2024/03/08 04:08:06;;;;;;;;;;;;;;;21.13;26.82;98099.00;5002939;28;938;-80
2024/03/08 04:10:31;;;;;;;;;;;;;;;22.01;25.51;98100.88;5003655;28;919;-81
2024/03/08 04:12:57;;;;;;;;;;;;;;;21.75;25.62;98105.59;5002523;28;1063;-80
2024/03/08 04:15:23;;;;;;;;;;;;;;;21.76;25.90;98112.88;5002715;28;1105;-80
2024/03/08 04:17:49;;;;;;;;;;;;;;;21.93;25.54;98104.38;5019095;28;1952;-80
2024/03/08 04:20:14;;;;;;;;;;;;;;;21.92;25.80;98106.41;4970172;28;1489;-80
2024/03/08 04:22:40;;;;;;;;;;;;;;;21.56;25.89;98107.31;4986816;28;1200;-80
2024/03/08 04:25:06;;;;;;;;;;;;;;;21.39;26.35;98099.25;5002195;28;865;-80
2024/03/08 04:27:32;;;;;;;;;;;;;;;21.31;26.51;98102.25;4986614;28;1254;-80
2024/03/08 04:29:59;;;;;;;;;;;;;;;21.74;25.79;98095.53;4999016;28;1203;-80
2024/03/08 04:32:24;;;;;;;;;;;;;;;21.63;26.14;98097.84;5033762;28;1205;-80
2024/03/08 04:34:50;;;;;;;;;;;;;;;21.95;25.88;98096.22;5045985;28;1281;-80
2024/03/08 04:37:21;;;;;;;;;;;;;;;21.81;26.02;98092.53;5021072;28;1906;-80
2024/03/08 04:39:46;;;;;;;;;;;;;;;21.78;25.99;98087.72;5021545;28;1192;-80
2024/03/08 04:42:13;;;;;;;;;;;;;;;21.74;25.99;98103.22;5022832;28;1752;-80
2024/03/08 04:44:39;;;;;;;;;;;;;;;21.73;25.63;98108.09;5016680;28;1529;-80
2024/03/08 04:47:05;;;;;;;;;;;;;;;21.20;26.31;98104.50;5022902;28;951;-80
2024/03/08 04:49:32;;;;;;;;;;;;;;;21.54;26.07;98103.31;5018902;28;1577;-80
2024/03/08 04:51:57;;;;;;;;;;;;;;;21.63;25.88;98114.03;5014321;28;1337;-80
2024/03/08 04:54:23;;;;;;;;;;;;;;;21.71;26.19;98116.25;5017875;28;1743;-80
2024/03/08 04:56:49;;;;;;;;;;;;;;;21.78;26.09;98110.38;5018889;28;1930;-80
2024/03/08 04:59:14;;;;;;;;;;;;;;;21.76;25.97;98112.88;5001329;28;1331;-80
2024/03/08 05:01:40;;;;;;;;;;;;;;;21.66;25.93;98119.63;5002799;28;896;-80
2024/03/08 05:04:05;;;;;;;;;;;;;;;21.38;26.44;98108.97;4990450;28;1488;-80
2024/03/08 05:06:31;;;;;;;;;;;;;;;21.59;26.16;98120.56;4982539;28;923;-80
2024/03/08 05:08:57;;;;;;;;;;;;;;;22.06;25.40;98116.53;4998060;28;844;-80
2024/03/08 05:11:22;;;;;;;;;;;;;;;21.84;25.84;98114.28;5002958;28;814;-80
2024/03/08 05:13:48;;;;;;;;;;;;;;;22.00;25.34;98112.66;4981218;28;1495;-80
2024/03/08 05:16:15;;;;;;;;;;;;;;;21.84;25.92;98125.59;5015101;28;1895;-81
2024/03/08 05:18:42;;;;;;;;;;;;;;;22.01;25.40;98122.75;4998401;28;901;-81
2024/03/08 05:21:09;;;;;;;;;;;;;;;21.83;25.81;98126.06;4999020;28;1228;-81
2024/03/08 05:23:34;;;;;;;;;;;;;;;21.33;26.12;98125.25;4997170;28;1326;-80
2024/03/08 05:26:00;;;;;;;;;;;;;;;21.47;25.75;98128.97;5024574;28;1410;-80
2024/03/08 05:28:26;;;;;;;;;;;;;;;21.92;25.65;98133.94;5013845;28;1102;-81
2024/03/08 05:30:51;;;;;;;;;;;;;;;21.51;26.41;98135.34;5015590;28;747;-80
2024/03/08 05:33:17;;;;;;;;;;;;;;;21.80;25.84;98136.22;5014646;28;1029;-81
2024/03/08 05:35:43;;;;;;;;;;;;;;;21.81;25.70;98143.50;5017152;28;1899;-80
2024/03/08 05:38:08;;;;;;;;;;;;;;;21.81;25.84;98140.69;5033348;28;1490;-80
2024/03/08 05:40:34;;;;;;;;;;;;;;;21.62;26.07;98147.22;5018607;28;1086;-81
2024/03/08 05:42:59;;;;;;;;;;;;;;;21.50;26.06;98150.72;5034209;28;860;-80
2024/03/08 05:45:25;;;;;;;;;;;;;;;21.73;25.91;98159.06;5034894;28;780;-80
2024/03/08 05:47:51;;;;;;;;;;;;;;;21.84;25.88;98153.13;5022141;28;1767;-80
2024/03/08 05:50:17;;;;;;;;;;;;;;;21.96;25.62;98154.44;5072180;28;845;-81
2024/03/08 05:52:43;;;;;;;;;;;;;;;21.99;25.48;98164.91;5039337;28;925;-81
2024/03/08 05:55:09;;;;;;;;;;;;;;;22.01;25.68;98157.53;5021959;28;895;-81
2024/03/08 05:57:37;;;;;;;;;;;;;;;21.83;25.70;98165.72;5005999;28;1906;-80
2024/03/08 06:00:03;;;;;;;;;;;;;;;21.53;26.03;98161.19;5019664;28;1191;-81
2024/03/08 06:02:41;;;;;;;;;;;;;;;21.11;26.60;98168.59;5018750;28;775;-81
2024/03/08 06:05:10;;;;;;;;;;;;;;;21.92;25.87;98168.72;5018378;28;994;-81
2024/03/08 06:07:36;;;;;;;;;;;;;;;21.69;26.01;98164.03;5035645;28;1436;-81
2024/03/08 06:10:01;;;;;;;;;;;;;;;21.81;26.09;98171.00;5020492;28;1519;-81
2024/03/08 06:12:28;;;;;;;;;;;;;;;21.76;25.88;98174.38;5020602;28;1776;-81
2024/03/08 06:14:54;;;;;;;;;;;;;;;21.74;26.00;98183.31;5021043;28;790;-80
2024/03/08 06:17:20;;;;;;;;;;;;;;;21.76;25.71;98177.19;5029211;28;1989;-81
2024/03/08 06:19:46;;;;;;;;;;;;;;;21.45;26.30;98179.56;5040832;28;964;-81
2024/03/08 06:22:12;;;;;;;;;;;;;;;21.42;26.27;98183.28;5025215;28;804;-81
2024/03/08 06:24:38;;;;;;;;;;;;;;;21.81;25.78;98185.16;5024307;28;1011;-81
2024/03/08 06:27:03;;;;;;;;;;;;;;;21.84;25.92;98187.94;5041217;28;1202;-81
2024/03/08 06:29:29;;;;;;;;;;;;;;;21.92;25.66;98190.59;5023718;28;1515;-81
2024/03/08 06:31:55;;;;;;;;;;;;;;;21.87;25.92;98191.13;5025343;28;1159;-81
2024/03/08 06:34:21;;;;;;;;;;;;;;;21.89;25.97;98186.59;5007895;28;827;-80
2024/03/08 06:36:46;;;;;;;;;;;;;;;21.71;26.06;98184.22;5024527;28;1910;-80
2024/03/08 06:39:12;;;;;;;;;;;;;;;21.46;26.32;98181.19;5023925;28;1292;-81
2024/03/08 06:41:37;;;;;;;;;;;;;;;21.44;26.37;98175.13;5041241;28;1538;-81
2024/03/08 06:44:03;;;;;;;;;;;;;;;21.92;25.90;98182.09;5043176;28;988;-81
2024/03/08 06:46:28;;;;;;;;;;;;;;;21.97;25.51;98187.22;5025894;28;790;-81
2024/03/08 06:48:54;;;;;;;;;;;;;;;21.74;26.23;98185.34;5025072;28;1122;-80
2024/03/08 06:51:19;;;;;;;;;;;;;;;21.84;25.93;98187.13;5007133;28;1329;-80
2024/03/08 06:53:45;;;;;;;;;;;;;;;21.71;25.88;98187.06;5023563;28;975;-80
2024/03/08 06:56:11;;;;;;;;;;;;;;;21.70;26.03;98193.94;5001808;28;1910;-81
2024/03/08 06:58:37;;;;;;;;;;;;;;;21.19;26.55;98199.13;4984534;28;1093;-81
2024/03/08 07:01:04;;;;;;;;;;;;;;;21.74;26.11;98194.66;4946236;29;1727;-81
2024/03/08 07:03:32;;;;;;;;;;;;;;;21.83;25.94;98197.66;4929522;29;1434;-81
2024/03/08 07:05:58;;;;;;;;;;;;;;;21.88;25.83;98192.72;4931078;29;1391;-81
2024/03/08 07:08:23;;;;;;;;;;;;;;;21.78;25.83;98206.69;4929837;29;928;-81
2024/03/08 07:10:49;;;;;;;;;;;;;;;21.82;26.13;98196.09;4946163;29;1471;-80
2024/03/08 07:13:15;;;;;;;;;;;;;;;21.87;25.68;98197.59;4945866;29;982;-81
2024/03/08 07:15:40;;;;;;;;;;;;;;;21.31;26.52;98201.31;4930261;29;1915;-81
2024/03/08 07:18:08;;;;;;;;;;;;;;;21.33;26.19;98209.34;4892377;29;1109;-81
2024/03/08 07:20:35;;;;;;;;;;;;;;;21.81;26.07;98194.50;4907765;29;1639;-80
2024/03/08 07:23:00;;;;;;;;;;;;;;;21.76;25.86;98199.84;4888715;29;1376;-80
2024/03/08 07:25:29;;;;;;;;;;;;;;;21.82;26.09;98200.94;4905165;29;986;-81
2024/03/08 07:27:55;;;;;;;;;;;;;;;21.87;25.80;98205.28;4918368;29;1296;-81
2024/03/08 07:33:25;;;;;;;;;;;;;;;21.92;25.83;98207.59;4885640;29;863;-81
2024/03/08 07:35:50;;;;;;;;;;;;;;;21.70;26.14;98193.94;4896756;29;1977;-80
2024/03/08 07:38:16;;;;;;;;;;;;;;;21.64;25.96;98206.22;4872360;29;1000;-80
2024/03/08 07:40:44;;;;;;;;;;;;;;;21.95;26.00;98198.19;4889213;29;814;-81
2024/03/08 07:43:10;;;;;;;;;;;;;;;21.89;25.88;98199.97;4888017;29;803;-80
2024/03/08 07:45:36;;;;;;;;;;;;;;;21.72;26.08;98208.47;4882918;29;946;-80
2024/03/08 07:48:02;;;;;;;;;;;;;;;21.93;25.78;98207.16;4866513;29;1583;-80
2024/03/08 07:50:28;;;;;;;;;;;;;;;21.93;25.65;98195.03;4851489;29;1167;-81
2024/03/08 07:52:54;;;;;;;;;;;;;;;21.75;26.02;98199.06;4851528;29;775;-81
2024/03/08 07:55:20;;;;;;;;;;;;;;;21.79;25.70;98213.94;4869040;29;1262;-80
2024/03/08 07:57:47;;;;;;;;;;;;;;;21.58;26.08;98197.47;4939046;29;1970;-80
2024/03/08 08:00:17;;;;;;;;;;;;;;;21.98;26.04;98203.00;4906167;29;1830;-80
2024/03/08 08:02:43;;;;;;;;;;;;;;;21.66;26.16;98209.41;4922706;29;1759;-81
2024/03/08 08:05:10;;;;;;;;;;;;;;;21.65;26.15;98202.16;4961307;28;1082;-81
2024/03/08 08:07:36;;;;;;;;;;;;;;;21.88;26.14;98215.38;4996999;28;1116;-81
2024/03/08 08:10:01;;;;;;;;;;;;;;;21.70;26.33;98205.25;4967149;28;1067;-81
2024/03/08 08:12:28;;;;;;;;;;;;;;;21.62;26.20;98215.19;4984141;28;1567;-80
2024/03/08 08:14:54;;;;;;;;;;;;;;;21.50;26.31;98207.34;4999846;28;1126;-81
2024/03/08 08:17:20;;;;;;;;;;;;;;;21.35;26.65;98211.72;5014153;28;1910;-81
2024/03/08 08:19:45;;;;;;;;;;;;;;;21.80;25.97;98209.88;5021976;28;1575;-81
2024/03/08 08:22:11;;;;;;;;;;;;;;;21.59;26.57;98204.72;5000088;28;1627;-80
2024/03/08 08:24:36;;;;;;;;;;;;;;;21.90;26.00;98201.56;5016107;28;827;-81
2024/03/08 08:27:02;;;;;;;;;;;;;;;21.77;26.30;98205.09;4983278;28;1207;-81
2024/03/08 08:29:28;;;;;;;;;;;;;;;21.99;25.92;98215.91;4999164;28;1043;-80
2024/03/08 08:31:54;;;;;;;;;;;;;;;21.46;26.40;98212.31;4983714;28;1139;-81
2024/03/08 08:34:21;;;;;;;;;;;;;;;21.23;26.83;98205.47;4983001;28;1568;-81
2024/03/08 08:36:47;;;;;;;;;;;;;;;21.71;26.44;98206.88;4963622;28;1918;-81
2024/03/08 08:39:13;;;;;;;;;;;;;;;21.85;26.07;98211.38;4925158;29;1165;-81
2024/03/08 08:41:41;;;;;;;;;;;;;;;21.84;26.34;98204.91;4957591;29;822;-80
2024/03/08 08:44:09;;;;;;;;;;;;;;;21.93;25.91;98200.69;4956485;29;833;-80
2024/03/08 08:46:38;;;;;;;;;;;;;;;21.93;25.96;98203.53;4956948;29;825;-81
2024/03/08 08:49:04;;;;;;;;;;;;;;;21.99;25.96;98204.56;4925045;29;1058;-80
2024/03/08 08:51:30;;;;;;;;;;;;;;;21.75;25.90;98201.09;4925238;29;916;-80
2024/03/08 08:53:56;;;;;;;;;;;;;;;21.45;26.30;98207.88;4959425;29;999;-80
2024/03/08 08:56:22;;;;;;;;;;;;;;;21.85;26.10;98212.19;4960565;29;1987;-80
2024/03/08 08:58:48;;;;;;;;;;;;;;;22.11;25.41;98218.06;4943558;29;927;-81
2024/03/08 09:01:14;;;;;;;;;;;;;;;22.03;25.64;98211.75;4976805;28;944;-80
2024/03/08 09:03:43;;;;;;;;;;;;;;;21.98;25.89;98214.31;4943626;29;908;-80
2024/03/08 09:06:12;;;;;;;;;;;;;;;22.03;25.73;98211.75;4960622;29;918;-80
2024/03/08 09:08:38;;;;;;;;;;;;;;;21.72;26.17;98214.13;4958923;29;1730;-80
2024/03/08 09:11:05;;;;;;;;;;;;;;;21.79;26.07;98213.94;4993313;28;1775;-80
2024/03/08 09:13:30;;;;;;;;;;;;;;;21.46;26.33;98209.47;4992468;28;925;-81
2024/03/08 09:15:56;;;;;;;;;;;;;;;21.52;26.71;98216.22;5039335;28;1906;-80
2024/03/08 09:18:21;;;;;;;;;;;;;;;21.83;25.92;98203.34;5037999;28;1654;-80
2024/03/08 09:20:48;;;;;;;;;;;;;;;21.88;26.32;98215.38;5040770;28;958;-80
2024/03/08 09:23:14;;;;;;;;;;;;;;;21.85;26.30;98215.00;5039612;28;865;-80
2024/03/08 09:25:40;;;;;;;;;;;;;;;21.94;25.99;98216.44;5038420;28;1874;-80
2024/03/08 09:28:06;;;;;;;;;;;;;;;21.91;26.21;98214.47;5038751;28;1230;-80
2024/03/08 09:30:32;;;;;;;;;;;;;;;21.77;26.24;98210.78;5040000;28;910;-80
2024/03/08 09:32:57;;;;;;;;;;;;;;;21.39;26.59;98216.09;5039002;28;788;-80
2024/03/08 09:35:23;;;;;;;;;;;;;;;21.30;26.61;98216.69;5039420;28;962;-80
2024/03/08 09:37:51;;;;;;;;;;;;;;;21.70;26.29;98213.75;5039317;28;1894;-80
2024/03/08 09:40:19;;;;;;;;;;;;;;;21.84;26.02;98215.47;5039280;28;899;-80
2024/03/08 09:42:48;;;;;;;;;;;;;;;21.88;25.93;98215.38;5038577;28;797;-80
2024/03/08 09:45:16;;;;;;;;;;;;;;;21.91;26.21;98208.81;5037215;28;1703;-80
2024/03/08 09:47:42;;;;;;;;;;;;;;;21.69;26.35;98215.00;5039309;28;1698;-80
2024/03/08 09:50:12;;;;;;;;;;;;;;;21.55;26.43;98212.50;5038044;28;907;-80
2024/03/08 09:52:48;;;;;;;;;;;;;;;21.55;26.42;98215.31;5055177;28;888;-81
2024/03/08 09:55:13;;;;;;;;;;;;;;;21.95;26.18;98209.53;5037819;28;1251;-81
2024/03/08 09:57:57;;;;;;;;;;;;;;;22.01;25.90;98216.25;5021173;28;1906;-80
2024/03/08 10:00:24;;;;;;;;;;;;;;;21.92;26.03;98216.09;5056785;28;753;-81
2024/03/08 10:02:49;;;;;;;;;;;;;;;21.71;26.40;98218.19;5021124;28;1690;-80
2024/03/08 10:05:15;;;;;;;;;;;;;;;21.78;26.25;98211.56;5037282;28;1810;-80
2024/03/08 10:07:40;;;;;;;;;;;;;;;21.71;26.25;98211.72;5038510;28;806;-80
2024/03/08 10:10:08;;;;;;;;;;;;;;;21.68;26.12;98207.75;5037313;28;1712;-81
2024/03/08 10:12:34;;;;;;;;;;;;;;;21.59;26.49;98207.53;5000258;28;1682;-80
2024/03/08 10:15:00;;;;;;;;;;;;;;;21.79;26.41;98208.28;4982337;28;1714;-80
2024/03/08 10:17:26;;;;;;;;;;;;;;;21.90;26.09;98210.06;4965888;28;1910;-81
2024/03/08 10:19:52;;;;;;;;;;;;;;;21.60;26.65;98211.97;4997583;28;902;-80
2024/03/08 10:22:18;;;;;;;;;;;;;;;21.73;26.33;98212.88;4949605;28;1109;-81
2024/03/08 10:24:45;;;;;;;;;;;;;;;21.93;26.14;98206.34;4980777;28;1852;-80
2024/03/08 10:27:11;;;;;;;;;;;;;;;22.00;25.91;98209.00;4965796;28;1142;-81
2024/03/08 10:29:38;;;;;;;;;;;;;;;21.52;26.34;98210.56;4997213;28;1041;-80
2024/03/08 10:32:06;;;;;;;;;;;;;;;21.54;26.56;98208.06;4997522;28;1382;-80
2024/03/08 10:34:31;;;;;;;;;;;;;;;21.73;26.21;98210.06;4996103;28;1728;-80
2024/03/08 10:36:58;;;;;;;;;;;;;;;21.74;26.49;98217.31;4978741;28;1915;-80
2024/03/08 10:39:23;;;;;;;;;;;;;;;21.68;26.22;98207.75;4945547;28;973;-80
2024/03/08 10:42:07;;;;;;;;;;;;;;;21.66;26.49;98213.06;4962617;28;1352;-81
2024/03/08 10:44:37;;;;;;;;;;;;;;;21.72;26.19;98208.47;4979815;28;1720;-80
2024/03/08 10:47:25;;;;;;;;;;;;;;;21.74;26.25;98211.63;5019473;28;881;-80
2024/03/08 10:49:54;;;;;;;;;;;;;;;21.56;26.58;98214.09;5020154;28;864;-81
2024/03/08 10:52:20;;;;;;;;;;;;;;;21.95;26.03;98209.53;5004220;28;889;-80
2024/03/08 10:54:46;;;;;;;;;;;;;;;21.96;26.10;98200.56;5019332;28;1787;-80
2024/03/08 10:57:12;;;;;;;;;;;;;;;22.04;25.83;98206.88;5004784;28;1966;-80
2024/03/08 10:59:38;;;;;;;;;;;;;;;21.79;26.37;98208.28;5036764;28;889;-81
2024/03/08 11:02:04;;;;;;;;;;;;;;;21.84;26.41;98204.91;5021302;28;911;-81
2024/03/08 11:04:33;;;;;;;;;;;;;;;21.63;25.82;98148.00;5007466;28;1745;-80
2024/03/08 11:07:06;;;;;;;;;;;;;;;22.01;25.85;98193.59;5024156;28;1027;-80
2024/03/08 11:09:32;;;;;;;;;;;;;;;21.65;26.34;98191.63;5058105;28;871;-80
2024/03/08 11:12:16;;;;;;;;;;;;;;;21.92;26.11;98199.91;5025515;28;1229;-81
2024/03/08 11:14:42;;;;;;;;;;;;;;;21.81;26.34;98194.50;5040844;28;1748;-80
2024/03/08 11:17:08;;;;;;;;;;;;;;;21.83;26.42;98197.66;5042284;28;1985;-80
2024/03/08 11:19:33;;;;;;;;;;;;;;;21.90;26.04;98195.91;5040899;28;1135;-80
2024/03/08 11:21:59;;;;;;;;;;;;;;;21.93;26.27;98197.84;5025252;28;1240;-80
2024/03/08 11:24:27;;;;;;;;;;;;;;;21.94;26.06;98190.94;5040072;28;1321;-80
2024/03/08 11:26:56;;;;;;;;;;;;;;;21.46;26.86;98184.00;5043136;28;1197;-81
2024/03/08 11:29:32;;;;;;;;;;;;;;;21.33;27.00;98198.81;5024214;28;1253;-81
2024/03/08 11:32:23;;;;;;;;;;;;;;;21.87;26.45;98191.13;5023954;28;1248;-81
2024/03/08 11:34:50;;;;;;;;;;;;;;;22.03;26.09;98183.41;4906790;29;1752;-81
2024/03/08 11:37:18;;;;;;;;;;;;;;;21.88;26.07;98198.38;4892337;29;1907;-81
2024/03/08 11:39:51;;;;;;;;;;;;;;;21.89;26.13;98192.25;4870091;29;1188;-81
2024/03/08 11:42:19;;;;;;;;;;;;;;;21.90;26.13;98185.34;4886296;29;920;-81
2024/03/08 11:44:47;;;;;;;;;;;;;;;21.89;26.27;98191.47;4865657;29;1766;-80
2024/03/08 11:47:14;;;;;;;;;;;;;;;21.52;26.68;98193.56;4851731;29;964;-80
2024/03/08 11:49:44;;;;;;;;;;;;;;;21.80;26.27;98186.41;4851453;29;1062;-81
2024/03/08 11:52:13;;;;;;;;;;;;;;;21.65;26.68;98185.97;4852000;29;1353;-81
2024/03/08 11:54:39;;;;;;;;;;;;;;;22.14;25.62;98188.84;4850501;29;1739;-81
2024/03/08 11:57:04;;;;;;;;;;;;;;;21.85;26.21;98183.06;4851690;29;1907;-81
2024/03/08 11:59:30;;;;;;;;;;;;;;;21.87;26.38;98185.47;4835929;29;983;-81
2024/03/08 12:01:59;;;;;;;;;;;;;;;21.94;25.90;98196.59;4836714;29;932;-81
2024/03/08 12:04:25;;;;;;;;;;;;;;;21.82;26.16;98184.75;4850270;29;1938;-81
2024/03/08 12:06:50;;;;;;;;;;;;;;;21.42;26.75;98183.28;4867416;29;792;-81
2024/03/08 12:09:16;;;;;;;;;;;;;;;21.58;26.42;98194.63;4866378;29;1149;-81
2024/03/08 12:11:42;;;;;;;;;;;;;;;21.60;26.40;98186.47;4952582;28;969;-80
2024/03/08 12:14:09;;;;;;;;;;;;;;;21.91;26.02;98186.16;4982120;28;1249;-81
2024/03/08 12:16:36;;;;;;;;;;;;;;;21.82;26.21;98189.63;5015112;28;1906;-81
2024/03/08 12:19:04;;;;;;;;;;;;;;;21.73;26.34;98195.88;5039489;28;1683;-80
2024/03/08 12:21:31;;;;;;;;;;;;;;;21.95;26.18;98198.19;5024504;28;1236;-81
2024/03/08 12:24:03;;;;;;;;;;;;;;;21.81;25.96;98199.34;5038908;28;1684;-80
2024/03/08 12:26:28;;;;;;;;;;;;;;;21.55;26.25;98195.50;5040263;28;1183;-80
2024/03/08 12:28:55;;;;;;;;;;;;;;;21.41;26.32;98198.69;5006960;28;1470;-81
2024/03/08 12:31:21;;;;;;;;;;;;;;;21.86;26.12;98193.13;5040944;28;854;-81
2024/03/08 12:33:50;;;;;;;;;;;;;;;21.82;25.94;98198.91;5038644;28;1687;-81
2024/03/08 12:36:16;;;;;;;;;;;;;;;21.73;26.40;98195.88;5024033;28;1887;-81
2024/03/08 12:38:47;;;;;;;;;;;;;;;21.70;26.41;98196.75;5039176;28;747;-81
2024/03/08 12:41:17;;;;;;;;;;;;;;;21.69;26.28;98200.03;5007769;28;1147;-81
2024/03/08 12:43:48;;;;;;;;;;;;;;;21.57;26.28;98201.53;5014920;28;1854;-80
2024/03/08 12:46:16;;;;;;;;;;;;;;;21.59;26.24;98199.06;4961289;29;1261;-81
2024/03/08 12:48:46;;;;;;;;;;;;;;;21.61;26.43;98202.25;4960064;29;945;-81
2024/03/08 12:51:12;;;;;;;;;;;;;;;21.58;26.32;98198.25;4945669;29;1131;-81
2024/03/08 12:53:40;;;;;;;;;;;;;;;21.71;26.14;98189.88;4929077;29;2018;-81
2024/03/08 12:56:08;;;;;;;;;;;;;;;21.63;26.29;98201.81;4941513;29;1906;-81
2024/03/08 12:58:34;;;;;;;;;;;;;;;21.83;26.07;98197.66;4940107;29;1722;-80
2024/03/08 13:01:00;;;;;;;;;;;;;;;21.88;25.72;98192.72;4960765;29;894;-81